AAL800 KPHL-TNCA
Flight info
| Callsign | AAL800 |
|---|---|
| Flight time | 3h 47m |
| Altitude | 35000 |
| Route | OOD DCT TEBEE DCT HAYDO DCT SIE B24 LYNUS/N0446F340 DCT SILLY/M076F340 Y485 HOBOH/M076F350 Y485 CHUBY/M076F340 Y485 STERN/M076F360 Y485 SAUCR/M076F350 L453 LAMER/N0444F360 A554 RODRK DCT POKEG DCT VOGAR DCT BEROX BEROX2A |
| Aircraft | A21N/M-SDE2E3FGHIRWXY/LB1 |
Departure
| Time | 2026-05-07 20:41 |
|---|---|
| Airport | Philadelphia International Airport (KPHL) |
Arrival
| Time | 2026-05-08 00:29 |
|---|---|
| Airport | Queen Beatrix International Airport (TNCA) |
| Time | Latitude | Longitude | Altitude | Speed | Heading |
|---|---|---|---|---|---|
| 2026-05-07 20:22 | 39.87347 | -75.24493 | 17 ft | 0 kts | 49° |
| 2026-05-07 20:29 | 39.87340 | -75.24503 | 17 ft | 2 kts | 49° |
| 2026-05-07 20:30 | 39.87330 | -75.24518 | 17 ft | 2 kts | 68° |
| 2026-05-07 20:30 | 39.87328 | -75.24537 | 17 ft | 2 kts | 101° |
| 2026-05-07 20:30 | 39.87334 | -75.24555 | 17 ft | 2 kts | 132° |
| 2026-05-07 20:30 | 39.87346 | -75.24566 | 17 ft | 0 kts | 162° |
| 2026-05-07 20:31 | 39.87352 | -75.24567 | 17 ft | 1 kts | 168° |
| 2026-05-07 20:31 | 39.87354 | -75.24568 | 17 ft | 0 kts | 166° |
| 2026-05-07 20:36 | 39.87353 | -75.24568 | 17 ft | 0 kts | 166° |
| 2026-05-07 20:36 | 39.87342 | -75.24564 | 17 ft | 2 kts | 167° |
| 2026-05-07 20:37 | 39.87319 | -75.24558 | 17 ft | 6 kts | 167° |
| 2026-05-07 20:37 | 39.87255 | -75.24537 | 17 ft | 10 kts | 165° |
| 2026-05-07 20:37 | 39.87206 | -75.24480 | 17 ft | 10 kts | 92° |
| 2026-05-07 20:37 | 39.87222 | -75.24380 | 17 ft | 11 kts | 75° |
| 2026-05-07 20:38 | 39.87243 | -75.24277 | 16 ft | 12 kts | 76° |
| 2026-05-07 20:38 | 39.87247 | -75.24170 | 16 ft | 12 kts | 127° |
| 2026-05-07 20:38 | 39.87172 | -75.24113 | 16 ft | 12 kts | 158° |
| 2026-05-07 20:38 | 39.87085 | -75.24081 | 16 ft | 13 kts | 166° |
| 2026-05-07 20:39 | 39.86996 | -75.24050 | 16 ft | 13 kts | 165° |
| 2026-05-07 20:39 | 39.86913 | -75.24001 | 17 ft | 13 kts | 120° |
| 2026-05-07 20:39 | 39.86923 | -75.23885 | 17 ft | 13 kts | 75° |
| 2026-05-07 20:39 | 39.86947 | -75.23766 | 16 ft | 13 kts | 75° |
| 2026-05-07 20:40 | 39.86970 | -75.23645 | 17 ft | 13 kts | 76° |
| 2026-05-07 20:40 | 39.86994 | -75.23523 | 17 ft | 13 kts | 75° |
| 2026-05-07 20:40 | 39.86975 | -75.23416 | 16 ft | 13 kts | 155° |
| 2026-05-07 20:40 | 39.86894 | -75.23457 | 17 ft | 21 kts | 250° |
| 2026-05-07 20:41 | 39.86795 | -75.23950 | 17 ft | 96 kts | 255° |
| 2026-05-07 20:41 | 39.86562 | -75.25106 | 22 ft | 164 kts | 255° |
| 2026-05-07 20:41 | 39.86214 | -75.26672 | 429 ft | 187 kts | 257° |
| 2026-05-07 20:41 | 39.85817 | -75.28245 | 1357 ft | 186 kts | 246° |
| 2026-05-07 20:42 | 39.84981 | -75.29483 | 2234 ft | 191 kts | 223° |
| 2026-05-07 20:42 | 39.83890 | -75.30571 | 2872 ft | 208 kts | 219° |
| 2026-05-07 20:42 | 39.82673 | -75.31712 | 3510 ft | 225 kts | 219° |
| 2026-05-07 20:42 | 39.81339 | -75.32945 | 3979 ft | 245 kts | 218° |
| 2026-05-07 20:43 | 39.79885 | -75.34235 | 4463 ft | 265 kts | 211° |
| 2026-05-07 20:43 | 39.78038 | -75.34782 | 5064 ft | 283 kts | 176° |
| 2026-05-07 20:43 | 39.76133 | -75.34210 | 5924 ft | 285 kts | 163° |
| 2026-05-07 20:43 | 39.74234 | -75.33427 | 6732 ft | 289 kts | 165° |
| 2026-05-07 20:44 | 39.72301 | -75.32713 | 7515 ft | 292 kts | 169° |
| 2026-05-07 20:44 | 39.70337 | -75.32099 | 8324 ft | 293 kts | 172° |
| 2026-05-07 20:44 | 39.68350 | -75.31548 | 9119 ft | 294 kts | 175° |
| 2026-05-07 20:44 | 39.66336 | -75.31019 | 9885 ft | 295 kts | 176° |
| 2026-05-07 20:45 | 39.64340 | -75.30608 | 10581 ft | 295 kts | 183° |
| 2026-05-07 20:45 | 39.62269 | -75.30564 | 10974 ft | 304 kts | 192° |
| 2026-05-07 20:45 | 39.60105 | -75.30892 | 11300 ft | 317 kts | 195° |
| 2026-05-07 20:45 | 39.57878 | -75.31314 | 11769 ft | 328 kts | 195° |
| 2026-05-07 20:46 | 39.55632 | -75.31734 | 12502 ft | 329 kts | 195° |
| 2026-05-07 20:46 | 39.53385 | -75.32145 | 13299 ft | 329 kts | 195° |
| 2026-05-07 20:46 | 39.51105 | -75.32560 | 13999 ft | 331 kts | 195° |
| 2026-05-07 20:46 | 39.48832 | -75.32970 | 14657 ft | 332 kts | 196° |
| 2026-05-07 20:47 | 39.46549 | -75.33359 | 15348 ft | 336 kts | 193° |
| 2026-05-07 20:47 | 39.44152 | -75.33028 | 15882 ft | 364 kts | 170° |
| 2026-05-07 20:47 | 39.41907 | -75.31263 | 16486 ft | 391 kts | 146° |
| 2026-05-07 20:47 | 39.40118 | -75.28533 | 17113 ft | 402 kts | 136° |
| 2026-05-07 20:48 | 39.38421 | -75.25671 | 17667 ft | 406 kts | 136° |
| 2026-05-07 20:48 | 39.36680 | -75.22784 | 18171 ft | 410 kts | 137° |
| 2026-05-07 20:48 | 39.34900 | -75.19888 | 18702 ft | 413 kts | 138° |
| 2026-05-07 20:48 | 39.33077 | -75.16966 | 19178 ft | 417 kts | 138° |
| 2026-05-07 20:49 | 39.31265 | -75.14088 | 19663 ft | 420 kts | 139° |
| 2026-05-07 20:49 | 39.29399 | -75.11137 | 20207 ft | 422 kts | 139° |
| 2026-05-07 20:49 | 39.27538 | -75.08208 | 20700 ft | 425 kts | 140° |
| 2026-05-07 20:49 | 39.25677 | -75.05284 | 21115 ft | 430 kts | 140° |
| 2026-05-07 20:50 | 39.23771 | -75.02291 | 21567 ft | 433 kts | 140° |
| 2026-05-07 20:50 | 39.21845 | -74.99271 | 22013 ft | 436 kts | 141° |
| 2026-05-07 20:50 | 39.19924 | -74.96256 | 22471 ft | 439 kts | 141° |
| 2026-05-07 20:50 | 39.17998 | -74.93239 | 22905 ft | 441 kts | 141° |
| 2026-05-07 20:51 | 39.16046 | -74.90185 | 23323 ft | 443 kts | 141° |
| 2026-05-07 20:51 | 39.14068 | -74.87093 | 23718 ft | 446 kts | 142° |
| 2026-05-07 20:51 | 39.12098 | -74.84019 | 24147 ft | 449 kts | 142° |
| 2026-05-07 20:51 | 39.10141 | -74.80864 | 24501 ft | 456 kts | 140° |
| 2026-05-07 20:52 | 39.08303 | -74.77533 | 24878 ft | 464 kts | 136° |
| 2026-05-07 20:52 | 39.06538 | -74.73980 | 25249 ft | 470 kts | 134° |
| 2026-05-07 20:52 | 39.04823 | -74.70453 | 25562 ft | 473 kts | 134° |
| 2026-05-07 20:52 | 39.03078 | -74.66851 | 25906 ft | 476 kts | 134° |
| 2026-05-07 20:53 | 39.01317 | -74.63221 | 26241 ft | 478 kts | 134° |
| 2026-05-07 20:53 | 38.99548 | -74.59594 | 26587 ft | 480 kts | 135° |
| 2026-05-07 20:53 | 38.97770 | -74.55961 | 26940 ft | 481 kts | 134° |
| 2026-05-07 20:53 | 38.96008 | -74.52370 | 27263 ft | 484 kts | 135° |
| 2026-05-07 20:54 | 38.94191 | -74.48677 | 27488 ft | 488 kts | 135° |
| 2026-05-07 20:54 | 38.92389 | -74.45019 | 27787 ft | 490 kts | 134° |
| 2026-05-07 20:54 | 38.90551 | -74.41289 | 28062 ft | 493 kts | 134° |
| 2026-05-07 20:54 | 38.88719 | -74.37569 | 28379 ft | 495 kts | 134° |
| 2026-05-07 20:55 | 38.86951 | -74.33987 | 28684 ft | 496 kts | 135° |
| 2026-05-07 20:55 | 38.85120 | -74.30279 | 28975 ft | 498 kts | 135° |
| 2026-05-07 20:55 | 38.83277 | -74.26548 | 29346 ft | 497 kts | 135° |
| 2026-05-07 20:55 | 38.81416 | -74.22789 | 29683 ft | 497 kts | 135° |
| 2026-05-07 20:56 | 38.79568 | -74.19064 | 30029 ft | 496 kts | 135° |
| 2026-05-07 20:56 | 38.77726 | -74.15359 | 30375 ft | 496 kts | 135° |
| 2026-05-07 20:56 | 38.75893 | -74.11668 | 30679 ft | 496 kts | 135° |
| 2026-05-07 20:56 | 38.74046 | -74.07951 | 31044 ft | 495 kts | 135° |
| 2026-05-07 20:57 | 38.72205 | -74.04250 | 31340 ft | 495 kts | 135° |
| 2026-05-07 20:57 | 38.70346 | -74.00525 | 31639 ft | 495 kts | 135° |
| 2026-05-07 20:57 | 38.68504 | -73.96840 | 31957 ft | 494 kts | 135° |
| 2026-05-07 20:57 | 38.66645 | -73.93124 | 32241 ft | 494 kts | 135° |
| 2026-05-07 20:58 | 38.64787 | -73.89416 | 32475 ft | 495 kts | 135° |
| 2026-05-07 20:58 | 38.62938 | -73.85736 | 32717 ft | 496 kts | 135° |
| 2026-05-07 20:58 | 38.61091 | -73.82056 | 32979 ft | 496 kts | 135° |
| 2026-05-07 20:58 | 38.59228 | -73.78353 | 33249 ft | 496 kts | 135° |
| 2026-05-07 20:59 | 38.57346 | -73.74618 | 33451 ft | 497 kts | 135° |
| 2026-05-07 20:59 | 38.55499 | -73.70958 | 33594 ft | 500 kts | 134° |
| 2026-05-07 20:59 | 38.53602 | -73.67200 | 33759 ft | 502 kts | 134° |
| 2026-05-07 20:59 | 38.51730 | -73.63483 | 34030 ft | 501 kts | 134° |
| 2026-05-07 21:00 | 38.49837 | -73.59782 | 34277 ft | 499 kts | 135° |
| 2026-05-07 21:00 | 38.47912 | -73.56115 | 34426 ft | 501 kts | 135° |
| 2026-05-07 21:00 | 38.45956 | -73.52414 | 34598 ft | 501 kts | 135° |
| 2026-05-07 21:00 | 38.44013 | -73.48734 | 34820 ft | 502 kts | 135° |
| 2026-05-07 21:01 | 38.42088 | -73.45002 | 34883 ft | 506 kts | 134° |
| 2026-05-07 21:01 | 38.38312 | -73.37472 | 34889 ft | 506 kts | 133° |
| 2026-05-07 21:02 | 38.34552 | -73.29967 | 34886 ft | 504 kts | 134° |
| 2026-05-07 21:02 | 38.30770 | -73.22469 | 34887 ft | 506 kts | 134° |
| 2026-05-07 21:03 | 38.26975 | -73.14976 | 34887 ft | 506 kts | 134° |
| 2026-05-07 21:03 | 38.23157 | -73.07453 | 34899 ft | 507 kts | 133° |
| 2026-05-07 21:04 | 38.19362 | -72.99981 | 35145 ft | 504 kts | 134° |
| 2026-05-07 21:04 | 38.17466 | -72.96262 | 35656 ft | 496 kts | 134° |
| 2026-05-07 21:04 | 38.15572 | -72.92587 | 35525 ft | 502 kts | 135° |
| 2026-05-07 21:04 | 38.13671 | -72.88937 | 35251 ft | 505 kts | 134° |
| 2026-05-07 21:05 | 38.11728 | -72.85214 | 34977 ft | 506 kts | 134° |
| 2026-05-07 21:05 | 38.07854 | -72.77738 | 34893 ft | 507 kts | 133° |
| 2026-05-07 21:06 | 38.03561 | -72.70916 | 34886 ft | 484 kts | 150° |
| 2026-05-07 21:06 | 38.00935 | -72.68314 | 34889 ft | 466 kts | 159° |
| 2026-05-07 21:06 | 37.98165 | -72.66364 | 34887 ft | 452 kts | 169° |
| 2026-05-07 21:06 | 37.95284 | -72.65002 | 34894 ft | 436 kts | 177° |
| 2026-05-07 21:07 | 37.92362 | -72.64186 | 34883 ft | 423 kts | 185° |
| 2026-05-07 21:07 | 37.86549 | -72.63424 | 34870 ft | 421 kts | 188° |
| 2026-05-07 21:08 | 37.80743 | -72.62725 | 34855 ft | 421 kts | 187° |
| 2026-05-07 21:08 | 37.74876 | -72.61990 | 34855 ft | 422 kts | 187° |
| 2026-05-07 21:09 | 37.69000 | -72.61244 | 34852 ft | 426 kts | 187° |
| 2026-05-07 21:09 | 37.63099 | -72.60487 | 34849 ft | 427 kts | 187° |
| 2026-05-07 21:10 | 37.57216 | -72.59727 | 34848 ft | 425 kts | 187° |
| 2026-05-07 21:10 | 37.51271 | -72.58971 | 34840 ft | 429 kts | 187° |
| 2026-05-07 21:11 | 37.45341 | -72.58211 | 34850 ft | 429 kts | 187° |
| 2026-05-07 21:11 | 37.36467 | -72.57079 | 34843 ft | 430 kts | 187° |
| 2026-05-07 21:12 | 37.30510 | -72.56321 | 34841 ft | 430 kts | 187° |
| 2026-05-07 21:12 | 37.24542 | -72.55568 | 34839 ft | 430 kts | 187° |
| 2026-05-07 21:13 | 37.18626 | -72.55251 | 34842 ft | 425 kts | 191° |
| 2026-05-07 21:13 | 37.12727 | -72.55121 | 34841 ft | 426 kts | 192° |
| 2026-05-07 21:14 | 37.06829 | -72.54988 | 34841 ft | 425 kts | 191° |
| 2026-05-07 21:14 | 37.00931 | -72.54858 | 34839 ft | 426 kts | 191° |
| 2026-05-07 21:15 | 36.94984 | -72.54730 | 34833 ft | 427 kts | 192° |
| 2026-05-07 21:15 | 36.89066 | -72.54602 | 34834 ft | 428 kts | 191° |
| 2026-05-07 21:16 | 36.83131 | -72.54472 | 34833 ft | 428 kts | 191° |
| 2026-05-07 21:16 | 36.77174 | -72.54340 | 34842 ft | 427 kts | 192° |
| 2026-05-07 21:17 | 36.71182 | -72.53857 | 34835 ft | 438 kts | 185° |
| 2026-05-07 21:17 | 36.65121 | -72.52533 | 34835 ft | 450 kts | 179° |
| 2026-05-07 21:18 | 36.59019 | -72.50561 | 34832 ft | 453 kts | 177° |
| 2026-05-07 21:18 | 36.52931 | -72.48560 | 34837 ft | 455 kts | 177° |
| 2026-05-07 21:19 | 36.46830 | -72.46564 | 34833 ft | 456 kts | 177° |
| 2026-05-07 21:19 | 36.40687 | -72.44562 | 34823 ft | 455 kts | 177° |
| 2026-05-07 21:20 | 36.34584 | -72.42574 | 34823 ft | 454 kts | 177° |
| 2026-05-07 21:20 | 36.28488 | -72.40597 | 34823 ft | 455 kts | 177° |
| 2026-05-07 21:21 | 36.22338 | -72.38603 | 34827 ft | 457 kts | 177° |
| 2026-05-07 21:21 | 36.16168 | -72.36603 | 34830 ft | 461 kts | 177° |
| 2026-05-07 21:22 | 36.09962 | -72.34617 | 34829 ft | 459 kts | 179° |
| 2026-05-07 21:22 | 36.03807 | -72.33246 | 34827 ft | 442 kts | 186° |
| 2026-05-07 21:23 | 35.97774 | -72.32756 | 34834 ft | 433 kts | 192° |
| 2026-05-07 21:23 | 35.91754 | -72.32837 | 34832 ft | 434 kts | 193° |
| 2026-05-07 21:24 | 35.85681 | -72.32937 | 34826 ft | 436 kts | 193° |
| 2026-05-07 21:24 | 35.79617 | -72.33032 | 34827 ft | 436 kts | 192° |
| 2026-05-07 21:25 | 35.73519 | -72.33117 | 34842 ft | 440 kts | 192° |
| 2026-05-07 21:25 | 35.67414 | -72.33200 | 34842 ft | 438 kts | 192° |
| 2026-05-07 21:26 | 35.61327 | -72.33287 | 34842 ft | 437 kts | 192° |
| 2026-05-07 21:26 | 35.55201 | -72.33375 | 34845 ft | 443 kts | 192° |
| 2026-05-07 21:27 | 35.49048 | -72.33460 | 34846 ft | 439 kts | 191° |
| 2026-05-07 21:27 | 35.42947 | -72.33547 | 34856 ft | 443 kts | 191° |
| 2026-05-07 21:28 | 35.36770 | -72.33639 | 34854 ft | 446 kts | 191° |
| 2026-05-07 21:28 | 35.30557 | -72.33726 | 34865 ft | 444 kts | 191° |
| 2026-05-07 21:29 | 35.24395 | -72.33808 | 34853 ft | 444 kts | 191° |
| 2026-05-07 21:29 | 35.18213 | -72.33899 | 34856 ft | 446 kts | 191° |
| 2026-05-07 21:30 | 35.12020 | -72.33989 | 34868 ft | 447 kts | 190° |
| 2026-05-07 21:30 | 35.05785 | -72.34080 | 34874 ft | 448 kts | 190° |
| 2026-05-07 21:31 | 34.99542 | -72.34169 | 34884 ft | 447 kts | 191° |
| 2026-05-07 21:31 | 34.93405 | -72.34747 | 34878 ft | 439 kts | 197° |
| 2026-05-07 21:32 | 34.87372 | -72.35735 | 34886 ft | 438 kts | 197° |
| 2026-05-07 21:32 | 34.81321 | -72.36728 | 34887 ft | 441 kts | 197° |
| 2026-05-07 21:33 | 34.75212 | -72.37596 | 34888 ft | 446 kts | 193° |
| 2026-05-07 21:33 | 34.68961 | -72.37724 | 34891 ft | 453 kts | 187° |
| 2026-05-07 21:34 | 34.62630 | -72.37125 | 34895 ft | 458 kts | 184° |
| 2026-05-07 21:34 | 34.56290 | -72.36429 | 34900 ft | 456 kts | 184° |
| 2026-05-07 21:35 | 34.49956 | -72.35740 | 34906 ft | 460 kts | 184° |
| 2026-05-07 21:35 | 34.43610 | -72.35054 | 34903 ft | 456 kts | 184° |
| 2026-05-07 21:36 | 34.37300 | -72.34367 | 34906 ft | 455 kts | 184° |
| 2026-05-07 21:36 | 34.30974 | -72.33690 | 34912 ft | 460 kts | 185° |
| 2026-05-07 21:37 | 34.24632 | -72.33006 | 34914 ft | 458 kts | 184° |
| 2026-05-07 21:37 | 34.18275 | -72.32320 | 34913 ft | 457 kts | 184° |
| 2026-05-07 21:38 | 34.11941 | -72.31638 | 34916 ft | 457 kts | 184° |
| 2026-05-07 21:38 | 34.05560 | -72.30952 | 34921 ft | 459 kts | 184° |
| 2026-05-07 21:39 | 33.99172 | -72.30188 | 34928 ft | 465 kts | 181° |
| 2026-05-07 21:39 | 33.92800 | -72.28714 | 34931 ft | 472 kts | 176° |
| 2026-05-07 21:40 | 33.86406 | -72.26940 | 34932 ft | 469 kts | 176° |
| 2026-05-07 21:40 | 33.80039 | -72.25185 | 34933 ft | 471 kts | 175° |
| 2026-05-07 21:41 | 33.73646 | -72.23428 | 34936 ft | 471 kts | 175° |
| 2026-05-07 21:41 | 33.67258 | -72.21679 | 34942 ft | 472 kts | 175° |
| 2026-05-07 21:42 | 33.60867 | -72.19931 | 34944 ft | 472 kts | 175° |
| 2026-05-07 21:42 | 33.54474 | -72.18185 | 34947 ft | 471 kts | 175° |
| 2026-05-07 21:43 | 33.48074 | -72.16440 | 34948 ft | 471 kts | 175° |
| 2026-05-07 21:43 | 33.41711 | -72.14710 | 34954 ft | 473 kts | 175° |
| 2026-05-07 21:44 | 33.35259 | -72.12959 | 34957 ft | 473 kts | 175° |
| 2026-05-07 21:44 | 33.28871 | -72.11224 | 34960 ft | 473 kts | 175° |
| 2026-05-07 21:45 | 33.22478 | -72.09491 | 34960 ft | 473 kts | 175° |
| 2026-05-07 21:45 | 33.16015 | -72.07740 | 34967 ft | 472 kts | 175° |
| 2026-05-07 21:46 | 33.09631 | -72.06018 | 34972 ft | 473 kts | 175° |
| 2026-05-07 21:46 | 33.03211 | -72.04285 | 34971 ft | 474 kts | 175° |
| 2026-05-07 21:47 | 32.96783 | -72.02554 | 34973 ft | 474 kts | 175° |
| 2026-05-07 21:47 | 32.90356 | -72.00829 | 34974 ft | 475 kts | 175° |
| 2026-05-07 21:48 | 32.83878 | -71.99091 | 34979 ft | 475 kts | 175° |
| 2026-05-07 21:48 | 32.77469 | -71.97374 | 34979 ft | 475 kts | 175° |
| 2026-05-07 21:49 | 32.71026 | -71.95648 | 34980 ft | 474 kts | 175° |
| 2026-05-07 21:49 | 32.64579 | -71.93926 | 34980 ft | 475 kts | 174° |
| 2026-05-07 21:50 | 32.58136 | -71.92207 | 34981 ft | 475 kts | 174° |
| 2026-05-07 21:50 | 32.51659 | -71.90480 | 34985 ft | 476 kts | 174° |
| 2026-05-07 21:51 | 32.45215 | -71.88764 | 34984 ft | 476 kts | 174° |
| 2026-05-07 21:51 | 32.38771 | -71.87051 | 34984 ft | 475 kts | 174° |
| 2026-05-07 21:52 | 32.32282 | -71.85331 | 34988 ft | 476 kts | 174° |
| 2026-05-07 21:52 | 32.25817 | -71.83619 | 34994 ft | 478 kts | 174° |
| 2026-05-07 21:53 | 32.19316 | -71.81898 | 34992 ft | 478 kts | 174° |
| 2026-05-07 21:53 | 32.12853 | -71.80187 | 34992 ft | 478 kts | 174° |
| 2026-05-07 21:54 | 32.06339 | -71.78471 | 34997 ft | 479 kts | 174° |
| 2026-05-07 21:54 | 31.99830 | -71.76756 | 34995 ft | 478 kts | 174° |
| 2026-05-07 21:55 | 31.93350 | -71.75055 | 34997 ft | 479 kts | 174° |
| 2026-05-07 21:55 | 31.86848 | -71.73350 | 34999 ft | 479 kts | 174° |
| 2026-05-07 21:56 | 31.80354 | -71.71645 | 35002 ft | 479 kts | 174° |
| 2026-05-07 21:56 | 31.73808 | -71.69935 | 35007 ft | 480 kts | 173° |
| 2026-05-07 21:57 | 31.67305 | -71.68233 | 35008 ft | 481 kts | 173° |
| 2026-05-07 21:57 | 31.60761 | -71.66523 | 35010 ft | 480 kts | 173° |
| 2026-05-07 21:58 | 31.54228 | -71.64820 | 35011 ft | 480 kts | 173° |
| 2026-05-07 21:58 | 31.47724 | -71.63127 | 35015 ft | 480 kts | 173° |
| 2026-05-07 21:59 | 31.41188 | -71.61427 | 35019 ft | 480 kts | 173° |
| 2026-05-07 21:59 | 31.34660 | -71.59734 | 35023 ft | 481 kts | 173° |
| 2026-05-07 22:00 | 31.28158 | -71.58048 | 35025 ft | 481 kts | 173° |
| 2026-05-07 22:00 | 31.21600 | -71.56349 | 35025 ft | 481 kts | 173° |
| 2026-05-07 22:01 | 31.15054 | -71.54659 | 35031 ft | 481 kts | 173° |
| 2026-05-07 22:01 | 31.08542 | -71.52978 | 35033 ft | 482 kts | 173° |
| 2026-05-07 22:02 | 31.01992 | -71.51289 | 35037 ft | 481 kts | 173° |
| 2026-05-07 22:02 | 30.95440 | -71.49603 | 35038 ft | 482 kts | 173° |
| 2026-05-07 22:03 | 30.88929 | -71.47929 | 35033 ft | 482 kts | 173° |
| 2026-05-07 22:03 | 30.82354 | -71.46242 | 35027 ft | 482 kts | 173° |
| 2026-05-07 22:04 | 30.75814 | -71.44567 | 35032 ft | 482 kts | 173° |
| 2026-05-07 22:04 | 30.69237 | -71.42883 | 35033 ft | 482 kts | 173° |
| 2026-05-07 22:05 | 30.62721 | -71.41216 | 35034 ft | 482 kts | 173° |
| 2026-05-07 22:05 | 30.56133 | -71.39535 | 35036 ft | 482 kts | 172° |
| 2026-05-07 22:06 | 30.49622 | -71.37875 | 35039 ft | 482 kts | 172° |
| 2026-05-07 22:06 | 30.43063 | -71.36205 | 35040 ft | 483 kts | 172° |
| 2026-05-07 22:07 | 30.36506 | -71.34539 | 35038 ft | 482 kts | 173° |
| 2026-05-07 22:07 | 30.29935 | -71.32870 | 35043 ft | 483 kts | 173° |
| 2026-05-07 22:08 | 30.23364 | -71.31205 | 35047 ft | 481 kts | 173° |
| 2026-05-07 22:08 | 30.16823 | -71.29549 | 35048 ft | 482 kts | 173° |
| 2026-05-07 22:09 | 30.10283 | -71.27896 | 35049 ft | 481 kts | 173° |
| 2026-05-07 22:09 | 30.03738 | -71.26244 | 35046 ft | 482 kts | 172° |
| 2026-05-07 22:10 | 29.97178 | -71.24592 | 35051 ft | 483 kts | 172° |
| 2026-05-07 22:10 | 29.90613 | -71.22938 | 35052 ft | 483 kts | 172° |
| 2026-05-07 22:11 | 29.84033 | -71.21282 | 35054 ft | 483 kts | 172° |
| 2026-05-07 22:11 | 29.77466 | -71.19631 | 35049 ft | 483 kts | 172° |
| 2026-05-07 22:12 | 29.70911 | -71.17989 | 35054 ft | 483 kts | 172° |
| 2026-05-07 22:12 | 29.64354 | -71.16348 | 35052 ft | 484 kts | 172° |
| 2026-05-07 22:13 | 29.57736 | -71.14693 | 35055 ft | 486 kts | 172° |
| 2026-05-07 22:13 | 29.51134 | -71.13044 | 35054 ft | 486 kts | 172° |
| 2026-05-07 22:14 | 29.44543 | -71.11398 | 35056 ft | 486 kts | 172° |
| 2026-05-07 22:14 | 29.37921 | -71.09750 | 35057 ft | 487 kts | 172° |
| 2026-05-07 22:15 | 29.31268 | -71.08096 | 35054 ft | 487 kts | 172° |
| 2026-05-07 22:15 | 29.24667 | -71.06455 | 35057 ft | 487 kts | 172° |
| 2026-05-07 22:16 | 29.18035 | -71.04810 | 35059 ft | 487 kts | 172° |
| 2026-05-07 22:16 | 29.11418 | -71.03170 | 35055 ft | 487 kts | 172° |
| 2026-05-07 22:17 | 29.04763 | -71.01524 | 35058 ft | 489 kts | 171° |
| 2026-05-07 22:17 | 28.98156 | -70.99889 | 35055 ft | 489 kts | 171° |
| 2026-05-07 22:18 | 28.88164 | -70.97421 | 35058 ft | 489 kts | 171° |
| 2026-05-07 22:19 | 28.81516 | -70.95785 | 35060 ft | 488 kts | 171° |
| 2026-05-07 22:19 | 28.74877 | -70.94154 | 35059 ft | 489 kts | 171° |
| 2026-05-07 22:20 | 28.68198 | -70.92514 | 35059 ft | 489 kts | 171° |
| 2026-05-07 22:20 | 28.61574 | -70.90891 | 35060 ft | 489 kts | 171° |
| 2026-05-07 22:21 | 28.54911 | -70.89259 | 35060 ft | 488 kts | 171° |
| 2026-05-07 22:21 | 28.48281 | -70.87636 | 35060 ft | 489 kts | 171° |
| 2026-05-07 22:22 | 28.41616 | -70.86007 | 35054 ft | 489 kts | 171° |
| 2026-05-07 22:22 | 28.34944 | -70.84380 | 35054 ft | 489 kts | 171° |
| 2026-05-07 22:23 | 28.28337 | -70.82768 | 35057 ft | 488 kts | 171° |
| 2026-05-07 22:23 | 28.21687 | -70.81149 | 35059 ft | 489 kts | 171° |
| 2026-05-07 22:24 | 28.15040 | -70.79533 | 35060 ft | 488 kts | 171° |
| 2026-05-07 22:24 | 28.08410 | -70.77922 | 35058 ft | 488 kts | 171° |
| 2026-05-07 22:25 | 28.01770 | -70.76313 | 35059 ft | 488 kts | 171° |
| 2026-05-07 22:25 | 27.95104 | -70.74699 | 35059 ft | 488 kts | 170° |
| 2026-05-07 22:26 | 27.88468 | -70.73094 | 35057 ft | 488 kts | 170° |
| 2026-05-07 22:26 | 27.81811 | -70.71486 | 35058 ft | 488 kts | 170° |
| 2026-05-07 22:27 | 27.75146 | -70.69878 | 35060 ft | 488 kts | 170° |
| 2026-05-07 22:27 | 27.68521 | -70.68280 | 35059 ft | 488 kts | 170° |
| 2026-05-07 22:28 | 27.61849 | -70.66676 | 35058 ft | 488 kts | 170° |
| 2026-05-07 22:28 | 27.55231 | -70.65085 | 35060 ft | 489 kts | 170° |
| 2026-05-07 22:29 | 27.48589 | -70.63490 | 35059 ft | 489 kts | 170° |
| 2026-05-07 22:29 | 27.41927 | -70.61891 | 35058 ft | 489 kts | 170° |
| 2026-05-07 22:30 | 27.35239 | -70.60290 | 35059 ft | 489 kts | 170° |
| 2026-05-07 22:30 | 27.28605 | -70.58703 | 35061 ft | 489 kts | 170° |
| 2026-05-07 22:31 | 27.21927 | -70.57108 | 35061 ft | 488 kts | 170° |
| 2026-05-07 22:31 | 27.15315 | -70.55531 | 35060 ft | 488 kts | 169° |
| 2026-05-07 22:32 | 27.08645 | -70.53941 | 35059 ft | 489 kts | 169° |
| 2026-05-07 22:32 | 27.01984 | -70.52355 | 35060 ft | 489 kts | 169° |
| 2026-05-07 22:33 | 26.95358 | -70.50781 | 35061 ft | 489 kts | 169° |
| 2026-05-07 22:33 | 26.88676 | -70.49192 | 35058 ft | 488 kts | 169° |
| 2026-05-07 22:34 | 26.82035 | -70.47617 | 35060 ft | 488 kts | 169° |
| 2026-05-07 22:34 | 26.75378 | -70.46042 | 35060 ft | 489 kts | 169° |
| 2026-05-07 22:35 | 26.68749 | -70.44473 | 35062 ft | 489 kts | 169° |
| 2026-05-07 22:35 | 26.62090 | -70.42898 | 35065 ft | 488 kts | 169° |
| 2026-05-07 22:36 | 26.55450 | -70.41331 | 35066 ft | 488 kts | 169° |
| 2026-05-07 22:36 | 26.48806 | -70.39764 | 35067 ft | 488 kts | 169° |
| 2026-05-07 22:37 | 26.42154 | -70.38198 | 35065 ft | 488 kts | 169° |
| 2026-05-07 22:37 | 26.35477 | -70.36628 | 35065 ft | 488 kts | 169° |
| 2026-05-07 22:38 | 26.28830 | -70.35067 | 35065 ft | 488 kts | 169° |
| 2026-05-07 22:38 | 26.22218 | -70.33515 | 35063 ft | 488 kts | 169° |
| 2026-05-07 22:39 | 26.15571 | -70.31956 | 35063 ft | 488 kts | 169° |
| 2026-05-07 22:39 | 26.08908 | -70.30396 | 35062 ft | 488 kts | 169° |
| 2026-05-07 22:40 | 26.02262 | -70.28842 | 35061 ft | 488 kts | 169° |
| 2026-05-07 22:40 | 25.95617 | -70.27290 | 35061 ft | 488 kts | 169° |
| 2026-05-07 22:41 | 25.88978 | -70.25742 | 35060 ft | 488 kts | 169° |
| 2026-05-07 22:41 | 25.82320 | -70.24191 | 35061 ft | 488 kts | 169° |
| 2026-05-07 22:42 | 25.75704 | -70.22651 | 35059 ft | 487 kts | 169° |
| 2026-05-07 22:42 | 25.69064 | -70.21105 | 35061 ft | 488 kts | 169° |
| 2026-05-07 22:43 | 25.62382 | -70.19554 | 35061 ft | 487 kts | 169° |
| 2026-05-07 22:43 | 25.55757 | -70.18018 | 35061 ft | 488 kts | 169° |
| 2026-05-07 22:44 | 25.49098 | -70.16474 | 35062 ft | 487 kts | 169° |
| 2026-05-07 22:44 | 25.42468 | -70.14940 | 35060 ft | 488 kts | 169° |
| 2026-05-07 22:45 | 25.35815 | -70.13403 | 35057 ft | 487 kts | 169° |
| 2026-05-07 22:45 | 25.29165 | -70.11866 | 35055 ft | 487 kts | 169° |
| 2026-05-07 22:46 | 25.22528 | -70.10335 | 35060 ft | 487 kts | 169° |
| 2026-05-07 22:46 | 25.15881 | -70.08803 | 35062 ft | 487 kts | 169° |
| 2026-05-07 22:47 | 25.09224 | -70.07271 | 35062 ft | 488 kts | 169° |
| 2026-05-07 22:47 | 25.02586 | -70.05782 | 35060 ft | 487 kts | 171° |
| 2026-05-07 22:48 | 24.95878 | -70.04925 | 35061 ft | 486 kts | 178° |
| 2026-05-07 22:48 | 24.89113 | -70.04610 | 35060 ft | 486 kts | 179° |
| 2026-05-07 22:49 | 24.82359 | -70.04320 | 35061 ft | 486 kts | 179° |
| 2026-05-07 22:49 | 24.75601 | -70.04017 | 35061 ft | 485 kts | 179° |
| 2026-05-07 22:50 | 24.68832 | -70.03706 | 35063 ft | 485 kts | 179° |
| 2026-05-07 22:50 | 24.62060 | -70.03395 | 35064 ft | 485 kts | 179° |
| 2026-05-07 22:51 | 24.55337 | -70.03087 | 35061 ft | 485 kts | 179° |
| 2026-05-07 22:51 | 24.48566 | -70.02776 | 35061 ft | 485 kts | 179° |
| 2026-05-07 22:52 | 24.41819 | -70.02467 | 35061 ft | 485 kts | 179° |
| 2026-05-07 22:52 | 24.35051 | -70.02158 | 35067 ft | 485 kts | 179° |
| 2026-05-07 22:53 | 24.28330 | -70.01850 | 35069 ft | 485 kts | 179° |
| 2026-05-07 22:53 | 24.21543 | -70.01540 | 35069 ft | 485 kts | 179° |
| 2026-05-07 22:54 | 24.14827 | -70.01382 | 35065 ft | 484 kts | 181° |
| 2026-05-07 22:54 | 24.08055 | -70.01450 | 35065 ft | 484 kts | 182° |
| 2026-05-07 22:55 | 24.01317 | -70.01527 | 35062 ft | 484 kts | 182° |
| 2026-05-07 22:55 | 23.94592 | -70.01600 | 35063 ft | 484 kts | 182° |
| 2026-05-07 22:56 | 23.87858 | -70.01671 | 35059 ft | 484 kts | 182° |
| 2026-05-07 22:56 | 23.81083 | -70.01743 | 35060 ft | 484 kts | 182° |
| 2026-05-07 22:57 | 23.74344 | -70.01816 | 35062 ft | 484 kts | 182° |
| 2026-05-07 22:57 | 23.67640 | -70.01887 | 35062 ft | 484 kts | 182° |
| 2026-05-07 22:58 | 23.60899 | -70.01957 | 35059 ft | 484 kts | 182° |
| 2026-05-07 22:58 | 23.54137 | -70.02029 | 35060 ft | 484 kts | 182° |
| 2026-05-07 22:59 | 23.47393 | -70.02100 | 35060 ft | 484 kts | 182° |
| 2026-05-07 22:59 | 23.40639 | -70.02170 | 35064 ft | 484 kts | 182° |
| 2026-05-07 23:00 | 23.33930 | -70.02241 | 35059 ft | 483 kts | 182° |
| 2026-05-07 23:00 | 23.27195 | -70.02312 | 35061 ft | 484 kts | 181° |
| 2026-05-07 23:01 | 23.20438 | -70.02383 | 35061 ft | 484 kts | 181° |
| 2026-05-07 23:01 | 23.13685 | -70.02452 | 35060 ft | 484 kts | 182° |
| 2026-05-07 23:02 | 23.06962 | -70.02522 | 35061 ft | 484 kts | 182° |
| 2026-05-07 23:02 | 23.00223 | -70.02594 | 35059 ft | 484 kts | 182° |
| 2026-05-07 23:03 | 22.93512 | -70.02665 | 35061 ft | 483 kts | 182° |
| 2026-05-07 23:03 | 22.86768 | -70.02734 | 35055 ft | 483 kts | 182° |
| 2026-05-07 23:04 | 22.80006 | -70.02805 | 35056 ft | 484 kts | 182° |
| 2026-05-07 23:04 | 22.73305 | -70.02874 | 35056 ft | 483 kts | 182° |
| 2026-05-07 23:05 | 22.66570 | -70.02945 | 35056 ft | 483 kts | 181° |
| 2026-05-07 23:05 | 22.59822 | -70.03014 | 35054 ft | 483 kts | 181° |
| 2026-05-07 23:06 | 22.53128 | -70.03083 | 35052 ft | 483 kts | 182° |
| 2026-05-07 23:06 | 22.46366 | -70.03155 | 35049 ft | 483 kts | 181° |
| 2026-05-07 23:07 | 22.39669 | -70.03223 | 35047 ft | 483 kts | 181° |
| 2026-05-07 23:07 | 22.32894 | -70.03294 | 35045 ft | 483 kts | 181° |
| 2026-05-07 23:08 | 22.26203 | -70.03362 | 35046 ft | 483 kts | 181° |
| 2026-05-07 23:08 | 22.19468 | -70.03431 | 35044 ft | 483 kts | 181° |
| 2026-05-07 23:09 | 22.12746 | -70.03500 | 35042 ft | 483 kts | 181° |
| 2026-05-07 23:09 | 22.06012 | -70.03571 | 35040 ft | 483 kts | 181° |
| 2026-05-07 23:10 | 21.99289 | -70.03641 | 35040 ft | 482 kts | 181° |
| 2026-05-07 23:10 | 21.92560 | -70.03709 | 35037 ft | 483 kts | 181° |
| 2026-05-07 23:11 | 21.85841 | -70.03778 | 35038 ft | 483 kts | 181° |
| 2026-05-07 23:11 | 21.79081 | -70.03849 | 35038 ft | 483 kts | 181° |
| 2026-05-07 23:12 | 21.72404 | -70.03915 | 35038 ft | 483 kts | 181° |
| 2026-05-07 23:12 | 21.65638 | -70.03986 | 35038 ft | 483 kts | 181° |
| 2026-05-07 23:13 | 21.58935 | -70.04056 | 35037 ft | 483 kts | 181° |
| 2026-05-07 23:13 | 21.52190 | -70.04125 | 35039 ft | 483 kts | 181° |
| 2026-05-07 23:14 | 21.45456 | -70.04194 | 35037 ft | 483 kts | 181° |
| 2026-05-07 23:14 | 21.38741 | -70.04262 | 35038 ft | 483 kts | 181° |
| 2026-05-07 23:15 | 21.32031 | -70.04330 | 35038 ft | 484 kts | 181° |
| 2026-05-07 23:15 | 21.25265 | -70.04400 | 35037 ft | 483 kts | 181° |
| 2026-05-07 23:16 | 21.18544 | -70.04468 | 35037 ft | 484 kts | 181° |
| 2026-05-07 23:16 | 21.11823 | -70.04536 | 35037 ft | 483 kts | 180° |
| 2026-05-07 23:17 | 21.05088 | -70.04604 | 35037 ft | 483 kts | 180° |
| 2026-05-07 23:17 | 20.98356 | -70.04672 | 35037 ft | 483 kts | 180° |
| 2026-05-07 23:18 | 20.91596 | -70.04740 | 35036 ft | 483 kts | 181° |
| 2026-05-07 23:18 | 20.84845 | -70.04808 | 35038 ft | 483 kts | 180° |
| 2026-05-07 23:19 | 20.78134 | -70.04877 | 35035 ft | 483 kts | 180° |
| 2026-05-07 23:19 | 20.71420 | -70.04946 | 35032 ft | 483 kts | 180° |
| 2026-05-07 23:20 | 20.64674 | -70.05013 | 35033 ft | 483 kts | 180° |
| 2026-05-07 23:20 | 20.57927 | -70.05082 | 35031 ft | 484 kts | 180° |
| 2026-05-07 23:21 | 20.51173 | -70.05150 | 35031 ft | 484 kts | 180° |
| 2026-05-07 23:21 | 20.44452 | -70.05217 | 35028 ft | 484 kts | 180° |
| 2026-05-07 23:22 | 20.37734 | -70.05285 | 35027 ft | 484 kts | 180° |
| 2026-05-07 23:22 | 20.30946 | -70.05354 | 35023 ft | 484 kts | 180° |
| 2026-05-07 23:23 | 20.24216 | -70.05423 | 35023 ft | 484 kts | 180° |
| 2026-05-07 23:23 | 20.17435 | -70.05473 | 35022 ft | 484 kts | 178° |
| 2026-05-07 23:24 | 20.10723 | -70.05244 | 35024 ft | 484 kts | 176° |
| 2026-05-07 23:24 | 20.03961 | -70.04974 | 35019 ft | 484 kts | 176° |
| 2026-05-07 23:25 | 19.97197 | -70.04708 | 35017 ft | 485 kts | 177° |
| 2026-05-07 23:25 | 19.90452 | -70.04444 | 35014 ft | 484 kts | 176° |
| 2026-05-07 23:26 | 19.83707 | -70.04182 | 35012 ft | 484 kts | 177° |
| 2026-05-07 23:26 | 19.76999 | -70.03926 | 35002 ft | 484 kts | 176° |
| 2026-05-07 23:27 | 19.66881 | -70.03536 | 35015 ft | 484 kts | 177° |
| 2026-05-07 23:27 | 19.60102 | -70.03277 | 35020 ft | 485 kts | 177° |
| 2026-05-07 23:28 | 19.53365 | -70.03020 | 35018 ft | 484 kts | 177° |
| 2026-05-07 23:28 | 19.46599 | -70.02760 | 35023 ft | 484 kts | 176° |
| 2026-05-07 23:29 | 19.39870 | -70.02503 | 35021 ft | 485 kts | 177° |
| 2026-05-07 23:29 | 19.33131 | -70.02245 | 35027 ft | 485 kts | 177° |
| 2026-05-07 23:30 | 19.26391 | -70.01988 | 35032 ft | 485 kts | 177° |
| 2026-05-07 23:30 | 19.19622 | -70.01730 | 35032 ft | 484 kts | 177° |
| 2026-05-07 23:31 | 19.12854 | -70.01472 | 35030 ft | 485 kts | 177° |
| 2026-05-07 23:31 | 19.06093 | -70.01215 | 35029 ft | 485 kts | 177° |
| 2026-05-07 23:32 | 18.99357 | -70.00958 | 35026 ft | 485 kts | 177° |
| 2026-05-07 23:32 | 18.92570 | -70.00700 | 35029 ft | 485 kts | 177° |
| 2026-05-07 23:33 | 18.85842 | -70.00444 | 35026 ft | 484 kts | 177° |
| 2026-05-07 23:33 | 18.79075 | -70.00188 | 35026 ft | 484 kts | 177° |
| 2026-05-07 23:34 | 18.72337 | -69.99932 | 35021 ft | 484 kts | 177° |
| 2026-05-07 23:34 | 18.65552 | -69.99676 | 35024 ft | 485 kts | 177° |
| 2026-05-07 23:35 | 18.58819 | -69.99421 | 35025 ft | 485 kts | 177° |
| 2026-05-07 23:35 | 18.52056 | -69.99163 | 35025 ft | 484 kts | 177° |
| 2026-05-07 23:36 | 18.45305 | -69.98910 | 35025 ft | 485 kts | 177° |
| 2026-05-07 23:36 | 18.38565 | -69.98655 | 35024 ft | 485 kts | 177° |
| 2026-05-07 23:37 | 18.31771 | -69.98399 | 35024 ft | 485 kts | 177° |
| 2026-05-07 23:37 | 18.25020 | -69.98145 | 35021 ft | 485 kts | 177° |
| 2026-05-07 23:38 | 18.18291 | -69.97891 | 35021 ft | 485 kts | 177° |
| 2026-05-07 23:38 | 18.11508 | -69.97884 | 35022 ft | 485 kts | 182° |
| 2026-05-07 23:39 | 18.04777 | -69.98166 | 35020 ft | 485 kts | 182° |
| 2026-05-07 23:39 | 17.98007 | -69.98463 | 35016 ft | 486 kts | 182° |
| 2026-05-07 23:40 | 17.91253 | -69.98749 | 35017 ft | 485 kts | 182° |
| 2026-05-07 23:40 | 17.84496 | -69.99034 | 35016 ft | 485 kts | 182° |
| 2026-05-07 23:41 | 17.77727 | -69.99317 | 35019 ft | 486 kts | 182° |
| 2026-05-07 23:41 | 17.70967 | -69.99599 | 35018 ft | 485 kts | 182° |
| 2026-05-07 23:42 | 17.64192 | -69.99880 | 35017 ft | 485 kts | 182° |
| 2026-05-07 23:42 | 17.57434 | -70.00162 | 35017 ft | 485 kts | 182° |
| 2026-05-07 23:43 | 17.50670 | -70.00442 | 35017 ft | 485 kts | 182° |
| 2026-05-07 23:43 | 17.43907 | -70.00722 | 35017 ft | 486 kts | 182° |
| 2026-05-07 23:44 | 17.37141 | -70.01004 | 35016 ft | 485 kts | 182° |
| 2026-05-07 23:44 | 17.30373 | -70.01284 | 35017 ft | 485 kts | 182° |
| 2026-05-07 23:45 | 17.23594 | -70.01566 | 35018 ft | 485 kts | 182° |
| 2026-05-07 23:45 | 17.16820 | -70.01846 | 35015 ft | 485 kts | 181° |
| 2026-05-07 23:46 | 17.10082 | -70.02125 | 35016 ft | 485 kts | 181° |
| 2026-05-07 23:46 | 17.03302 | -70.02404 | 35015 ft | 486 kts | 181° |
| 2026-05-07 23:47 | 16.96535 | -70.02684 | 35016 ft | 485 kts | 181° |
| 2026-05-07 23:47 | 16.89792 | -70.02963 | 35014 ft | 485 kts | 181° |
| 2026-05-07 23:48 | 16.83042 | -70.03243 | 35013 ft | 485 kts | 181° |
| 2026-05-07 23:48 | 16.76291 | -70.03521 | 35010 ft | 485 kts | 181° |
| 2026-05-07 23:49 | 16.69503 | -70.03799 | 35010 ft | 485 kts | 181° |
| 2026-05-07 23:49 | 16.62752 | -70.04079 | 35009 ft | 484 kts | 181° |
| 2026-05-07 23:50 | 16.56004 | -70.04356 | 35008 ft | 484 kts | 181° |
| 2026-05-07 23:50 | 16.49245 | -70.04632 | 35007 ft | 484 kts | 181° |
| 2026-05-07 23:51 | 16.42498 | -70.04912 | 35001 ft | 485 kts | 181° |
| 2026-05-07 23:51 | 16.35748 | -70.05189 | 35002 ft | 485 kts | 181° |
| 2026-05-07 23:52 | 16.28991 | -70.05466 | 35002 ft | 484 kts | 181° |
| 2026-05-07 23:52 | 16.22288 | -70.05742 | 35000 ft | 484 kts | 181° |
| 2026-05-07 23:53 | 16.15518 | -70.06017 | 34997 ft | 484 kts | 181° |
| 2026-05-07 23:53 | 16.08764 | -70.06297 | 34997 ft | 484 kts | 181° |
| 2026-05-07 23:54 | 16.02051 | -70.06572 | 34995 ft | 484 kts | 181° |
| 2026-05-07 23:54 | 15.95318 | -70.06840 | 34993 ft | 484 kts | 180° |
| 2026-05-07 23:55 | 15.88549 | -70.07098 | 34992 ft | 483 kts | 181° |
| 2026-05-07 23:55 | 15.81783 | -70.07359 | 34994 ft | 484 kts | 181° |
| 2026-05-07 23:56 | 15.75062 | -70.07617 | 34992 ft | 484 kts | 181° |
| 2026-05-07 23:56 | 15.68301 | -70.07882 | 34989 ft | 483 kts | 180° |
| 2026-05-07 23:57 | 15.61597 | -70.08141 | 34989 ft | 483 kts | 181° |
| 2026-05-07 23:57 | 15.54870 | -70.08400 | 34985 ft | 483 kts | 181° |
| 2026-05-07 23:58 | 15.48124 | -70.08660 | 34985 ft | 484 kts | 181° |
| 2026-05-07 23:58 | 15.41361 | -70.08923 | 34985 ft | 484 kts | 181° |
| 2026-05-07 23:59 | 15.34635 | -70.09183 | 34984 ft | 484 kts | 181° |
| 2026-05-07 23:59 | 15.27868 | -70.09444 | 34982 ft | 483 kts | 180° |
| 2026-05-08 00:00 | 15.21160 | -70.09703 | 34979 ft | 484 kts | 180° |
| 2026-05-08 00:00 | 15.14412 | -70.09963 | 34979 ft | 484 kts | 180° |
| 2026-05-08 00:01 | 15.07625 | -70.10222 | 34979 ft | 485 kts | 180° |
| 2026-05-08 00:01 | 15.00876 | -70.10482 | 34976 ft | 484 kts | 180° |
| 2026-05-08 00:02 | 14.94122 | -70.10744 | 34972 ft | 484 kts | 181° |
| 2026-05-08 00:02 | 14.87387 | -70.11001 | 34968 ft | 484 kts | 181° |
| 2026-05-08 00:03 | 14.80635 | -70.11260 | 34749 ft | 485 kts | 181° |
| 2026-05-08 00:03 | 14.77277 | -70.11388 | 34456 ft | 482 kts | 181° |
| 2026-05-08 00:03 | 14.73900 | -70.11520 | 34163 ft | 479 kts | 181° |
| 2026-05-08 00:04 | 14.70569 | -70.11650 | 33876 ft | 477 kts | 180° |
| 2026-05-08 00:04 | 14.67237 | -70.11777 | 33591 ft | 476 kts | 181° |
| 2026-05-08 00:04 | 14.63944 | -70.11904 | 33304 ft | 476 kts | 181° |
| 2026-05-08 00:04 | 14.60618 | -70.12030 | 33016 ft | 478 kts | 180° |
| 2026-05-08 00:05 | 14.57292 | -70.12159 | 32727 ft | 479 kts | 180° |
| 2026-05-08 00:05 | 14.53925 | -70.12288 | 32463 ft | 480 kts | 180° |
| 2026-05-08 00:05 | 14.50590 | -70.12415 | 32219 ft | 480 kts | 180° |
| 2026-05-08 00:05 | 14.47275 | -70.12540 | 31926 ft | 480 kts | 180° |
| 2026-05-08 00:06 | 14.43910 | -70.12670 | 31483 ft | 481 kts | 180° |
| 2026-05-08 00:06 | 14.40566 | -70.12799 | 30919 ft | 481 kts | 180° |
| 2026-05-08 00:06 | 14.37212 | -70.12929 | 30275 ft | 482 kts | 180° |
| 2026-05-08 00:06 | 14.33841 | -70.13059 | 29607 ft | 483 kts | 180° |
| 2026-05-08 00:07 | 14.30504 | -70.13186 | 28929 ft | 484 kts | 180° |
| 2026-05-08 00:07 | 14.27121 | -70.13316 | 28204 ft | 486 kts | 180° |
| 2026-05-08 00:07 | 14.23741 | -70.13444 | 27567 ft | 484 kts | 180° |
| 2026-05-08 00:07 | 14.20378 | -70.13572 | 27114 ft | 478 kts | 180° |
| 2026-05-08 00:08 | 14.17079 | -70.13699 | 26641 ft | 474 kts | 180° |
| 2026-05-08 00:08 | 14.13789 | -70.13825 | 26151 ft | 469 kts | 179° |
| 2026-05-08 00:08 | 14.10531 | -70.13950 | 25670 ft | 465 kts | 179° |
| 2026-05-08 00:08 | 14.07309 | -70.14072 | 25183 ft | 461 kts | 179° |
| 2026-05-08 00:09 | 14.04117 | -70.14194 | 24692 ft | 458 kts | 179° |
| 2026-05-08 00:09 | 14.00949 | -70.14315 | 24222 ft | 453 kts | 179° |
| 2026-05-08 00:09 | 13.97780 | -70.14436 | 23734 ft | 450 kts | 179° |
| 2026-05-08 00:09 | 13.94675 | -70.14555 | 23269 ft | 446 kts | 179° |
| 2026-05-08 00:10 | 13.91560 | -70.14674 | 22796 ft | 442 kts | 179° |
| 2026-05-08 00:10 | 13.88490 | -70.14790 | 22307 ft | 439 kts | 179° |
| 2026-05-08 00:10 | 13.85427 | -70.14906 | 21837 ft | 436 kts | 179° |
| 2026-05-08 00:10 | 13.82401 | -70.15019 | 21368 ft | 433 kts | 179° |
| 2026-05-08 00:11 | 13.79407 | -70.15132 | 20896 ft | 430 kts | 180° |
| 2026-05-08 00:11 | 13.76398 | -70.15247 | 20421 ft | 426 kts | 180° |
| 2026-05-08 00:11 | 13.73459 | -70.15358 | 19952 ft | 423 kts | 180° |
| 2026-05-08 00:11 | 13.70527 | -70.15469 | 19487 ft | 419 kts | 180° |
| 2026-05-08 00:12 | 13.67628 | -70.15578 | 19014 ft | 415 kts | 180° |
| 2026-05-08 00:12 | 13.64749 | -70.15689 | 18535 ft | 412 kts | 180° |
| 2026-05-08 00:12 | 13.61906 | -70.15797 | 18060 ft | 408 kts | 180° |
| 2026-05-08 00:12 | 13.59031 | -70.15906 | 17578 ft | 405 kts | 181° |
| 2026-05-08 00:13 | 13.56254 | -70.16012 | 17096 ft | 401 kts | 181° |
| 2026-05-08 00:13 | 13.53463 | -70.16121 | 16601 ft | 398 kts | 180° |
| 2026-05-08 00:13 | 13.50693 | -70.16227 | 16105 ft | 396 kts | 180° |
| 2026-05-08 00:13 | 13.47932 | -70.16332 | 15614 ft | 393 kts | 180° |
| 2026-05-08 00:14 | 13.45235 | -70.16434 | 15140 ft | 390 kts | 180° |
| 2026-05-08 00:14 | 13.42520 | -70.16537 | 14665 ft | 386 kts | 180° |
| 2026-05-08 00:14 | 13.39823 | -70.16640 | 14188 ft | 383 kts | 180° |
| 2026-05-08 00:14 | 13.37169 | -70.16741 | 13719 ft | 380 kts | 180° |
| 2026-05-08 00:15 | 13.34538 | -70.16842 | 13249 ft | 377 kts | 180° |
| 2026-05-08 00:15 | 13.31925 | -70.16940 | 12782 ft | 374 kts | 180° |
| 2026-05-08 00:15 | 13.29323 | -70.17039 | 12313 ft | 370 kts | 180° |
| 2026-05-08 00:15 | 13.26745 | -70.17138 | 11845 ft | 367 kts | 180° |
| 2026-05-08 00:16 | 13.24203 | -70.17235 | 11379 ft | 364 kts | 180° |
| 2026-05-08 00:16 | 13.21673 | -70.17331 | 10912 ft | 361 kts | 180° |
| 2026-05-08 00:16 | 13.19197 | -70.17425 | 10451 ft | 358 kts | 180° |
| 2026-05-08 00:16 | 13.16690 | -70.17521 | 9981 ft | 355 kts | 180° |
| 2026-05-08 00:17 | 13.14275 | -70.17612 | 9793 ft | 342 kts | 180° |
| 2026-05-08 00:17 | 13.11882 | -70.17703 | 9817 ft | 339 kts | 180° |
| 2026-05-08 00:17 | 13.09521 | -70.17793 | 9841 ft | 339 kts | 180° |
| 2026-05-08 00:17 | 13.07147 | -70.17883 | 9864 ft | 339 kts | 180° |
| 2026-05-08 00:18 | 13.04803 | -70.17972 | 9887 ft | 340 kts | 180° |
| 2026-05-08 00:18 | 13.02437 | -70.18066 | 9960 ft | 333 kts | 180° |
| 2026-05-08 00:18 | 13.00158 | -70.18153 | 9932 ft | 317 kts | 180° |
| 2026-05-08 00:18 | 12.98025 | -70.18238 | 9900 ft | 301 kts | 179° |
| 2026-05-08 00:19 | 12.95923 | -70.18321 | 9534 ft | 299 kts | 179° |
| 2026-05-08 00:19 | 12.93844 | -70.18399 | 9154 ft | 297 kts | 179° |
| 2026-05-08 00:19 | 12.91797 | -70.18478 | 8797 ft | 294 kts | 179° |
| 2026-05-08 00:19 | 12.89733 | -70.18555 | 8438 ft | 291 kts | 179° |
| 2026-05-08 00:20 | 12.87706 | -70.18632 | 8078 ft | 289 kts | 179° |
| 2026-05-08 00:20 | 12.85696 | -70.18709 | 7719 ft | 287 kts | 179° |
| 2026-05-08 00:20 | 12.83715 | -70.18784 | 7363 ft | 285 kts | 179° |
| 2026-05-08 00:20 | 12.81725 | -70.18861 | 7008 ft | 282 kts | 179° |
| 2026-05-08 00:21 | 12.79771 | -70.18936 | 6659 ft | 280 kts | 179° |
| 2026-05-08 00:21 | 12.77818 | -70.19011 | 6308 ft | 278 kts | 179° |
| 2026-05-08 00:21 | 12.75884 | -70.19084 | 5959 ft | 276 kts | 179° |
| 2026-05-08 00:21 | 12.73969 | -70.19158 | 5616 ft | 274 kts | 179° |
| 2026-05-08 00:22 | 12.72061 | -70.19234 | 5268 ft | 273 kts | 178° |
| 2026-05-08 00:22 | 12.70179 | -70.19308 | 4933 ft | 271 kts | 178° |
| 2026-05-08 00:22 | 12.68298 | -70.19380 | 4594 ft | 269 kts | 177° |
| 2026-05-08 00:22 | 12.66403 | -70.19453 | 4263 ft | 268 kts | 177° |
| 2026-05-08 00:23 | 12.64539 | -70.19626 | 3976 ft | 270 kts | 183° |
| 2026-05-08 00:23 | 12.62720 | -70.19998 | 3911 ft | 259 kts | 187° |
| 2026-05-08 00:23 | 12.61015 | -70.20420 | 3908 ft | 245 kts | 188° |
| 2026-05-08 00:23 | 12.59359 | -70.20834 | 3913 ft | 245 kts | 187° |
| 2026-05-08 00:24 | 12.57693 | -70.21242 | 3913 ft | 245 kts | 186° |
| 2026-05-08 00:24 | 12.56032 | -70.21312 | 3889 ft | 231 kts | 156° |
| 2026-05-08 00:24 | 12.54771 | -70.20437 | 3857 ft | 210 kts | 122° |
| 2026-05-08 00:24 | 12.54184 | -70.19129 | 3248 ft | 203 kts | 101° |
| 2026-05-08 00:25 | 12.53924 | -70.17757 | 2721 ft | 194 kts | 98° |
| 2026-05-08 00:25 | 12.53672 | -70.16425 | 2260 ft | 187 kts | 99° |
| 2026-05-08 00:25 | 12.53395 | -70.15151 | 2000 ft | 183 kts | 100° |
| 2026-05-08 00:25 | 12.53100 | -70.13892 | 1988 ft | 184 kts | 101° |
| 2026-05-08 00:26 | 12.52794 | -70.12614 | 1862 ft | 183 kts | 101° |
| 2026-05-08 00:26 | 12.52493 | -70.11375 | 1715 ft | 169 kts | 100° |
| 2026-05-08 00:26 | 12.52222 | -70.10252 | 1463 ft | 159 kts | 100° |
| 2026-05-08 00:26 | 12.51967 | -70.09188 | 1256 ft | 146 kts | 100° |
| 2026-05-08 00:27 | 12.51734 | -70.08218 | 1049 ft | 134 kts | 99° |
| 2026-05-08 00:27 | 12.51517 | -70.07305 | 881 ft | 135 kts | 100° |
| 2026-05-08 00:27 | 12.51291 | -70.06358 | 719 ft | 136 kts | 100° |
| 2026-05-08 00:27 | 12.51065 | -70.05415 | 551 ft | 136 kts | 100° |
| 2026-05-08 00:28 | 12.50845 | -70.04480 | 376 ft | 136 kts | 101° |
| 2026-05-08 00:28 | 12.50613 | -70.03545 | 186 ft | 133 kts | 100° |
| 2026-05-08 00:28 | 12.50403 | -70.02641 | 48 ft | 131 kts | 101° |
| 2026-05-08 00:28 | 12.50207 | -70.01793 | 41 ft | 104 kts | 103° |
| 2026-05-08 00:29 | 12.50072 | -70.01244 | 57 ft | 54 kts | 103° |
| 2026-05-08 00:29 | 12.50031 | -70.01061 | 62 ft | 15 kts | 87° |
| 2026-05-08 00:29 | 12.50103 | -70.01003 | 63 ft | 13 kts | 14° |
| 2026-05-08 00:29 | 12.50190 | -70.00984 | 65 ft | 11 kts | 8° |
| 2026-05-08 00:30 | 12.50264 | -70.00978 | 65 ft | 8 kts | 12° |
| 2026-05-08 00:30 | 12.50303 | -70.00970 | 66 ft | 4 kts | 12° |
| 2026-05-08 00:30 | 12.50325 | -70.00965 | 66 ft | 1 kts | 12° |